sensor_id;sensor_type;location;lat;lon;timestamp;pressure;altitude;pressure_sealevel;temperature;humidity
59951;BME280;45812;53.540;9.774;2023-03-07T00:02:14;99445.16;;;0.88;100.00
59951;BME280;45812;53.540;9.774;2023-03-07T00:04:43;99441.59;;;0.89;100.00
59951;BME280;45812;53.540;9.774;2023-03-07T00:07:10;99439.09;;;0.88;100.00
59951;BME280;45812;53.540;9.774;2023-03-07T00:09:35;99433.31;;;0.84;100.00
59951;BME280;45812;53.540;9.774;2023-03-07T00:12:00;99431.09;;;0.89;100.00
59951;BME280;45812;53.540;9.774;2023-03-07T00:14:25;99429.88;;;0.84;100.00
59951;BME280;45812;53.540;9.774;2023-03-07T00:16:50;99421.19;;;0.83;100.00
59951;BME280;45812;53.540;9.774;2023-03-07T00:19:17;99421.47;;;0.90;100.00
59951;BME280;45812;53.540;9.774;2023-03-07T00:21:43;99418.16;;;0.88;100.00
59951;BME280;45812;53.540;9.774;2023-03-07T00:24:09;99407.16;;;0.94;100.00
59951;BME280;45812;53.540;9.774;2023-03-07T00:26:34;99403.81;;;0.82;100.00
59951;BME280;45812;53.540;9.774;2023-03-07T00:29:04;99393.06;;;0.76;100.00
59951;BME280;45812;53.540;9.774;2023-03-07T00:31:29;99384.22;;;0.77;100.00
59951;BME280;45812;53.540;9.774;2023-03-07T00:33:55;99379.69;;;0.79;100.00
59951;BME280;45812;53.540;9.774;2023-03-07T00:36:21;99383.69;;;0.83;100.00
59951;BME280;45812;53.540;9.774;2023-03-07T00:38:46;99385.06;;;0.87;100.00
59951;BME280;45812;53.540;9.774;2023-03-07T00:41:14;99372.50;;;0.90;100.00
59951;BME280;45812;53.540;9.774;2023-03-07T00:43:40;99378.84;;;0.88;100.00
59951;BME280;45812;53.540;9.774;2023-03-07T00:46:06;99366.72;;;0.87;100.00
59951;BME280;45812;53.540;9.774;2023-03-07T00:48:34;99364.25;;;0.95;100.00
59951;BME280;45812;53.540;9.774;2023-03-07T00:51:01;99352.25;;;1.02;100.00
59951;BME280;45812;53.540;9.774;2023-03-07T00:53:26;99350.47;;;0.93;100.00
59951;BME280;45812;53.540;9.774;2023-03-07T00:56:19;99361.66;;;0.95;100.00
59951;BME280;45812;53.540;9.774;2023-03-07T00:58:45;99341.78;;;1.02;100.00
59951;BME280;45812;53.540;9.774;2023-03-07T01:01:13;99332.69;;;1.06;100.00
59951;BME280;45812;53.540;9.774;2023-03-07T01:03:39;99337.66;;;1.00;100.00
59951;BME280;45812;53.540;9.774;2023-03-07T01:06:07;99335.84;;;1.00;100.00
59951;BME280;45812;53.540;9.774;2023-03-07T01:08:33;99348.53;;;0.95;100.00
59951;BME280;45812;53.540;9.774;2023-03-07T01:11:01;99320.25;;;0.89;100.00
59951;BME280;45812;53.540;9.774;2023-03-07T01:13:27;99322.75;;;1.00;100.00
59951;BME280;45812;53.540;9.774;2023-03-07T01:15:52;99313.81;;;0.93;100.00
59951;BME280;45812;53.540;9.774;2023-03-07T01:18:17;99300.44;;;0.96;100.00
59951;BME280;45812;53.540;9.774;2023-03-07T01:20:43;99301.63;;;0.92;100.00
59951;BME280;45812;53.540;9.774;2023-03-07T01:23:08;99296.28;;;1.03;100.00
59951;BME280;45812;53.540;9.774;2023-03-07T01:25:41;99284.00;;;1.04;100.00
59951;BME280;45812;53.540;9.774;2023-03-07T01:28:07;99292.97;;;1.01;100.00
59951;BME280;45812;53.540;9.774;2023-03-07T01:30:33;99288.53;;;1.11;100.00
59951;BME280;45812;53.540;9.774;2023-03-07T01:33:00;99277.00;;;0.95;100.00
59951;BME280;45812;53.540;9.774;2023-03-07T01:35:25;99270.91;;;0.94;100.00
59951;BME280;45812;53.540;9.774;2023-03-07T01:37:52;99273.09;;;0.89;100.00
59951;BME280;45812;53.540;9.774;2023-03-07T01:40:19;99257.25;;;0.90;100.00
59951;BME280;45812;53.540;9.774;2023-03-07T01:42:45;99251.03;;;0.91;100.00
59951;BME280;45812;53.540;9.774;2023-03-07T01:47:36;99258.53;;;0.77;100.00
59951;BME280;45812;53.540;9.774;2023-03-07T01:50:05;99246.78;;;0.81;100.00
59951;BME280;45812;53.540;9.774;2023-03-07T01:52:34;99232.59;;;0.83;100.00
59951;BME280;45812;53.540;9.774;2023-03-07T01:55:06;99233.53;;;0.92;100.00
59951;BME280;45812;53.540;9.774;2023-03-07T01:57:34;99227.34;;;0.93;100.00
59951;BME280;45812;53.540;9.774;2023-03-07T02:00:05;99226.94;;;0.98;100.00
59951;BME280;45812;53.540;9.774;2023-03-07T02:02:33;99217.97;;;1.00;100.00
59951;BME280;45812;53.540;9.774;2023-03-07T02:05:09;99219.72;;;1.09;100.00
59951;BME280;45812;53.540;9.774;2023-03-07T02:07:40;99216.84;;;1.12;100.00
59951;BME280;45812;53.540;9.774;2023-03-07T02:10:07;99207.19;;;1.13;100.00
59951;BME280;45812;53.540;9.774;2023-03-07T02:12:34;99209.38;;;1.17;100.00
59951;BME280;45812;53.540;9.774;2023-03-07T02:14:59;99207.19;;;1.13;100.00
59951;BME280;45812;53.540;9.774;2023-03-07T02:17:25;99205.50;;;1.21;100.00
59951;BME280;45812;53.540;9.774;2023-03-07T02:20:26;99202.19;;;1.19;100.00
59951;BME280;45812;53.540;9.774;2023-03-07T02:22:55;99191.72;;;1.19;100.00
59951;BME280;45812;53.540;9.774;2023-03-07T02:25:27;99197.53;;;1.13;100.00
59951;BME280;45812;53.540;9.774;2023-03-07T02:27:56;99193.38;;;1.11;100.00
59951;BME280;45812;53.540;9.774;2023-03-07T02:30:22;99170.44;;;1.23;100.00
59951;BME280;45812;53.540;9.774;2023-03-07T02:32:48;99176.91;;;1.28;100.00
59951;BME280;45812;53.540;9.774;2023-03-07T02:35:16;99167.97;;;1.21;100.00
59951;BME280;45812;53.540;9.774;2023-03-07T02:37:43;99180.66;;;1.26;100.00
59951;BME280;45812;53.540;9.774;2023-03-07T02:40:11;99172.09;;;1.24;100.00
59951;BME280;45812;53.540;9.774;2023-03-07T02:42:40;99170.31;;;1.24;100.00
59951;BME280;45812;53.540;9.774;2023-03-07T02:45:09;99159.13;;;1.32;100.00
59951;BME280;45812;53.540;9.774;2023-03-07T02:47:35;99160.91;;;1.31;100.00
59951;BME280;45812;53.540;9.774;2023-03-07T02:50:01;99164.59;;;1.38;100.00
59951;BME280;45812;53.540;9.774;2023-03-07T02:52:26;99149.69;;;1.39;100.00
59951;BME280;45812;53.540;9.774;2023-03-07T02:54:52;99153.97;;;1.40;100.00
59951;BME280;45812;53.540;9.774;2023-03-07T02:57:18;99149.69;;;1.39;100.00
59951;BME280;45812;53.540;9.774;2023-03-07T02:59:44;99138.69;;;1.35;100.00
59951;BME280;45812;53.540;9.774;2023-03-07T03:02:09;99149.41;;;1.42;100.00
59951;BME280;45812;53.540;9.774;2023-03-07T03:04:34;99139.59;;;1.44;100.00
59951;BME280;45812;53.540;9.774;2023-03-07T03:07:00;99151.25;;;1.59;100.00
59951;BME280;45812;53.540;9.774;2023-03-07T03:09:25;99123.63;;;1.65;100.00
59951;BME280;45812;53.540;9.774;2023-03-07T03:11:51;99127.16;;;1.46;100.00
59951;BME280;45812;53.540;9.774;2023-03-07T03:14:16;99125.50;;;1.45;100.00
59951;BME280;45812;53.540;9.774;2023-03-07T03:16:41;99128.25;;;1.53;100.00
59951;BME280;45812;53.540;9.774;2023-03-07T03:19:07;99111.53;;;1.54;100.00
59951;BME280;45812;53.540;9.774;2023-03-07T03:21:32;99115.97;;;1.54;100.00
59951;BME280;45812;53.540;9.774;2023-03-07T03:23:57;99128.94;;;1.55;100.00
59951;BME280;45812;53.540;9.774;2023-03-07T03:26:22;99110.88;;;1.52;100.00
59951;BME280;45812;53.540;9.774;2023-03-07T03:28:48;99111.25;;;1.57;100.00
59951;BME280;45812;53.540;9.774;2023-03-07T03:31:13;99095.66;;;1.56;100.00
59951;BME280;45812;53.540;9.774;2023-03-07T03:33:40;99111.25;;;1.57;100.00
59951;BME280;45812;53.540;9.774;2023-03-07T03:36:08;99108.47;;;1.59;100.00
59951;BME280;45812;53.540;9.774;2023-03-07T03:38:33;99101.34;;;1.51;100.00
59951;BME280;45812;53.540;9.774;2023-03-07T03:41:05;99093.34;;;1.52;100.00
59951;BME280;45812;53.540;9.774;2023-03-07T03:43:30;99119.78;;;1.59;100.00
59951;BME280;45812;53.540;9.774;2023-03-07T03:45:57;99098.50;;;1.62;100.00
59951;BME280;45812;53.540;9.774;2023-03-07T03:48:22;99095.44;;;1.67;100.00
59951;BME280;45812;53.540;9.774;2023-03-07T03:50:48;99084.13;;;1.66;100.00
59951;BME280;45812;53.540;9.774;2023-03-07T03:53:13;99092.97;;;1.65;100.00
59951;BME280;45812;53.540;9.774;2023-03-07T03:55:38;99078.97;;;1.74;100.00
59951;BME280;45812;53.540;9.774;2023-03-07T03:58:03;99079.66;;;1.76;100.00
59951;BME280;45812;53.540;9.774;2023-03-07T04:00:29;99077.25;;;1.83;100.00
59951;BME280;45812;53.540;9.774;2023-03-07T04:02:55;99085.66;;;1.87;100.00
59951;BME280;45812;53.540;9.774;2023-03-07T04:05:20;99082.22;;;1.86;100.00
59951;BME280;45812;53.540;9.774;2023-03-07T04:07:46;99079.03;;;1.82;100.00
59951;BME280;45812;53.540;9.774;2023-03-07T04:10:11;99075.03;;;1.88;100.00
59951;BME280;45812;53.540;9.774;2023-03-07T04:12:36;99065.25;;;1.80;100.00
59951;BME280;45812;53.540;9.774;2023-03-07T04:15:02;99083.25;;;1.75;100.00
59951;BME280;45812;53.540;9.774;2023-03-07T04:17:27;99072.47;;;1.78;100.00
59951;BME280;45812;53.540;9.774;2023-03-07T04:19:52;99065.88;;;1.74;100.00
59951;BME280;45812;53.540;9.774;2023-03-07T04:22:17;99060.78;;;1.73;100.00
59951;BME280;45812;53.540;9.774;2023-03-07T04:24:43;99065.03;;;1.74;100.00
59951;BME280;45812;53.540;9.774;2023-03-07T04:27:09;99070.50;;;1.80;100.00
59951;BME280;45812;53.540;9.774;2023-03-07T04:29:34;99043.97;;;1.83;100.00
59951;BME280;45812;53.540;9.774;2023-03-07T04:31:59;99057.25;;;1.82;100.00
59951;BME280;45812;53.540;9.774;2023-03-07T04:34:25;99054.19;;;1.87;100.00
59951;BME280;45812;53.540;9.774;2023-03-07T04:36:50;99038.44;;;1.87;100.00
59951;BME280;45812;53.540;9.774;2023-03-07T04:39:15;99046.38;;;1.95;100.00
59951;BME280;45812;53.540;9.774;2023-03-07T04:41:41;99037.63;;;1.86;100.00
59951;BME280;45812;53.540;9.774;2023-03-07T04:44:06;99038.44;;;1.87;100.00
59951;BME280;45812;53.540;9.774;2023-03-07T04:46:31;99031.16;;;1.80;100.00
59951;BME280;45812;53.540;9.774;2023-03-07T04:48:56;99036.78;;;1.86;100.00
59951;BME280;45812;53.540;9.774;2023-03-07T04:51:22;99043.16;;;1.83;100.00
59951;BME280;45812;53.540;9.774;2023-03-07T04:53:47;99019.03;;;1.79;100.00
59951;BME280;45812;53.540;9.774;2023-03-07T04:56:12;99024.06;;;1.73;100.00
59951;BME280;45812;53.540;9.774;2023-03-07T04:58:40;99020.22;;;1.67;100.00
59951;BME280;45812;53.540;9.774;2023-03-07T05:01:06;98992.78;;;1.62;100.00
59951;BME280;45812;53.540;9.774;2023-03-07T05:03:32;99030.78;;;1.58;100.00
59951;BME280;45812;53.540;9.774;2023-03-07T05:06:01;99025.53;;;1.58;100.00
59951;BME280;45812;53.540;9.774;2023-03-07T05:08:27;99002.97;;;1.65;100.00
59951;BME280;45812;53.540;9.774;2023-03-07T05:10:52;99024.88;;;1.73;100.00
59951;BME280;45812;53.540;9.774;2023-03-07T05:13:17;99010.69;;;1.66;100.00
59951;BME280;45812;53.540;9.774;2023-03-07T05:15:42;99001.78;;;1.59;100.00
59951;BME280;45812;53.540;9.774;2023-03-07T05:18:08;98988.06;;;1.65;100.00
59951;BME280;45812;53.540;9.774;2023-03-07T05:20:33;99004.09;;;1.62;100.00
59951;BME280;45812;53.540;9.774;2023-03-07T05:22:58;98995.09;;;1.65;100.00
59951;BME280;45812;53.540;9.774;2023-03-07T05:25:24;99000.81;;;1.60;100.00
59951;BME280;45812;53.540;9.774;2023-03-07T05:27:49;98986.19;;;1.58;100.00
59951;BME280;45812;53.540;9.774;2023-03-07T05:30:14;99017.66;;;1.58;100.00
59951;BME280;45812;53.540;9.774;2023-03-07T05:32:40;98983.78;;;1.46;100.00
59951;BME280;45812;53.540;9.774;2023-03-07T05:35:08;99014.97;;;1.49;100.00
59951;BME280;45812;53.540;9.774;2023-03-07T05:37:34;99000.66;;;1.44;100.00
59951;BME280;45812;53.540;9.774;2023-03-07T05:39:59;98992.41;;;1.39;100.00
59951;BME280;45812;53.540;9.774;2023-03-07T05:42:25;98971.66;;;1.28;100.00
59951;BME280;45812;53.540;9.774;2023-03-07T05:44:50;98980.09;;;1.21;100.00
59951;BME280;45812;53.540;9.774;2023-03-07T05:47:15;98970.97;;;1.26;100.00
59951;BME280;45812;53.540;9.774;2023-03-07T05:49:40;98971.66;;;1.28;100.00
59951;BME280;45812;53.540;9.774;2023-03-07T05:52:06;98964.91;;;1.25;100.00
59951;BME280;45812;53.540;9.774;2023-03-07T05:54:31;98971.28;;;1.23;100.00
59951;BME280;45812;53.540;9.774;2023-03-07T05:56:56;98994.41;;;1.27;100.00
59951;BME280;45812;53.540;9.774;2023-03-07T05:59:21;98968.00;;;1.38;100.00
59951;BME280;45812;53.540;9.774;2023-03-07T06:01:47;98967.19;;;1.38;100.00
59951;BME280;45812;53.540;9.774;2023-03-07T06:04:12;98985.59;;;1.46;100.00
59951;BME280;45812;53.540;9.774;2023-03-07T06:06:37;98982.25;;;1.54;100.00
59951;BME280;45812;53.540;9.774;2023-03-07T06:09:03;98962.41;;;1.51;100.00
59951;BME280;45812;53.540;9.774;2023-03-07T06:11:30;98973.16;;;1.48;100.00
59951;BME280;45812;53.540;9.774;2023-03-07T06:13:55;98965.16;;;1.49;100.00
59951;BME280;45812;53.540;9.774;2023-03-07T06:16:21;98949.88;;;1.45;100.00
59951;BME280;45812;53.540;9.774;2023-03-07T06:18:46;98966.50;;;1.36;100.00
59951;BME280;45812;53.540;9.774;2023-03-07T06:21:14;98957.16;;;1.33;100.00
59951;BME280;45812;53.540;9.774;2023-03-07T06:23:39;98978.13;;;1.33;100.00
59951;BME280;45812;53.540;9.774;2023-03-07T06:26:04;99016.47;;;1.34;100.00
59951;BME280;45812;53.540;9.774;2023-03-07T06:28:30;98960.97;;;1.39;100.00
59951;BME280;45812;53.540;9.774;2023-03-07T06:30:56;98967.09;;;1.47;100.00
59951;BME280;45812;53.540;9.774;2023-03-07T06:33:22;98976.31;;;1.51;100.00
59951;BME280;45812;53.540;9.774;2023-03-07T06:35:47;98966.19;;;1.57;100.00
59951;BME280;45812;53.540;9.774;2023-03-07T06:38:14;98976.38;;;1.60;100.00
59951;BME280;45812;53.540;9.774;2023-03-07T06:40:39;98975.78;;;1.66;100.00
59951;BME280;45812;53.540;9.774;2023-03-07T06:43:05;98978.19;;;1.59;100.00
59951;BME280;45812;53.540;9.774;2023-03-07T06:45:30;98975.63;;;1.67;100.00
59951;BME280;45812;53.540;9.774;2023-03-07T06:47:56;98979.53;;;1.63;100.00
59951;BME280;45812;53.540;9.774;2023-03-07T06:50:21;98979.38;;;1.65;100.00
59951;BME280;45812;53.540;9.774;2023-03-07T06:52:47;98986.00;;;1.69;100.00
59951;BME280;45812;53.540;9.774;2023-03-07T06:55:14;98981.41;;;1.71;100.00
59951;BME280;45812;53.540;9.774;2023-03-07T06:57:39;98983.56;;;1.75;100.00
59951;BME280;45812;53.540;9.774;2023-03-07T07:00:06;98989.84;;;1.82;100.00
59951;BME280;45812;53.540;9.774;2023-03-07T07:02:32;98992.31;;;1.84;100.00
59951;BME280;45812;53.540;9.774;2023-03-07T07:04:57;98995.19;;;1.73;100.00
59951;BME280;45812;53.540;9.774;2023-03-07T07:07:24;98995.41;;;1.79;100.00
59951;BME280;45812;53.540;9.774;2023-03-07T07:09:49;99022.41;;;1.90;100.00
59951;BME280;45812;53.540;9.774;2023-03-07T07:12:15;99016.53;;;1.96;100.00
59951;BME280;45812;53.540;9.774;2023-03-07T07:14:40;98999.47;;;1.92;100.00
59951;BME280;45812;53.540;9.774;2023-03-07T07:17:06;99003.69;;;2.10;100.00
59951;BME280;45812;53.540;9.774;2023-03-07T07:19:31;99002.25;;;2.16;100.00
59951;BME280;45812;53.540;9.774;2023-03-07T07:21:56;98987.13;;;2.10;100.00
59951;BME280;45812;53.540;9.774;2023-03-07T07:24:22;99010.75;;;2.10;100.00
59951;BME280;45812;53.540;9.774;2023-03-07T07:26:47;99006.78;;;2.06;100.00
59951;BME280;45812;53.540;9.774;2023-03-07T07:29:13;99000.84;;;2.04;100.00
59951;BME280;45812;53.540;9.774;2023-03-07T07:31:38;99023.78;;;2.02;100.00
59951;BME280;45812;53.540;9.774;2023-03-07T07:34:03;99003.41;;;1.96;100.00
59951;BME280;45812;53.540;9.774;2023-03-07T07:36:28;99019.75;;;2.07;100.00
59951;BME280;45812;53.540;9.774;2023-03-07T07:38:54;99054.28;;;2.21;100.00
59951;BME280;45812;53.540;9.774;2023-03-07T07:41:19;99024.16;;;2.25;100.00
59951;BME280;45812;53.540;9.774;2023-03-07T07:43:44;99021.09;;;2.37;100.00
59951;BME280;45812;53.540;9.774;2023-03-07T07:46:14;99022.75;;;2.38;100.00
59951;BME280;45812;53.540;9.774;2023-03-07T07:48:39;99029.31;;;2.60;100.00
59951;BME280;45812;53.540;9.774;2023-03-07T07:51:05;99014.97;;;2.55;100.00
59951;BME280;45812;53.540;9.774;2023-03-07T07:53:30;99017.19;;;2.41;100.00
59951;BME280;45812;53.540;9.774;2023-03-07T07:55:56;99035.88;;;2.38;100.00
59951;BME280;45812;53.540;9.774;2023-03-07T07:58:21;99024.19;;;2.33;100.00
59951;BME280;45812;53.540;9.774;2023-03-07T08:00:46;99023.81;;;2.46;100.00
59951;BME280;45812;53.540;9.774;2023-03-07T08:03:12;99043.41;;;2.59;100.00
59951;BME280;45812;53.540;9.774;2023-03-07T08:05:37;99073.88;;;2.78;100.00
59951;BME280;45812;53.540;9.774;2023-03-07T08:08:07;99039.84;;;2.68;100.00
59951;BME280;45812;53.540;9.774;2023-03-07T08:10:33;99038.25;;;2.50;100.00
59951;BME280;45812;53.540;9.774;2023-03-07T08:12:59;99037.84;;;2.36;100.00
59951;BME280;45812;53.540;9.774;2023-03-07T08:15:24;99063.94;;;2.38;100.00
59951;BME280;45812;53.540;9.774;2023-03-07T08:17:50;99058.59;;;2.48;100.00
59951;BME280;45812;53.540;9.774;2023-03-07T08:20:17;99070.44;;;2.52;100.00
59951;BME280;45812;53.540;9.774;2023-03-07T08:22:43;99044.16;;;2.43;100.00
59951;BME280;45812;53.540;9.774;2023-03-07T08:25:19;99055.50;;;2.52;100.00
59951;BME280;45812;53.540;9.774;2023-03-07T08:27:46;99054.88;;;2.58;100.00
59951;BME280;45812;53.540;9.774;2023-03-07T08:30:13;99055.19;;;2.55;100.00
59951;BME280;45812;53.540;9.774;2023-03-07T08:32:38;99047.69;;;2.60;100.00
59951;BME280;45812;53.540;9.774;2023-03-07T08:35:04;99056.41;;;2.61;100.00
59951;BME280;45812;53.540;9.774;2023-03-07T08:37:29;99055.72;;;2.59;100.00
59951;BME280;45812;53.540;9.774;2023-03-07T08:39:55;99077.84;;;2.56;100.00
59951;BME280;45812;53.540;9.774;2023-03-07T08:42:20;99068.91;;;2.67;100.00
59951;BME280;45812;53.540;9.774;2023-03-07T08:44:45;99076.81;;;2.75;100.00
59951;BME280;45812;53.540;9.774;2023-03-07T08:47:10;99072.00;;;2.62;100.00
59951;BME280;45812;53.540;9.774;2023-03-07T08:49:37;99075.84;;;2.76;100.00
59951;BME280;45812;53.540;9.774;2023-03-07T08:52:03;99079.00;;;2.80;100.00
59951;BME280;45812;53.540;9.774;2023-03-07T08:54:28;99087.94;;;2.61;100.00
59951;BME280;45812;53.540;9.774;2023-03-07T08:56:53;99092.78;;;2.56;100.00
59951;BME280;45812;53.540;9.774;2023-03-07T08:59:19;99098.97;;;2.47;100.00
59951;BME280;45812;53.540;9.774;2023-03-07T09:01:44;99110.22;;;2.39;100.00
59951;BME280;45812;53.540;9.774;2023-03-07T09:04:09;99113.66;;;2.39;100.00
59951;BME280;45812;53.540;9.774;2023-03-07T09:06:34;99090.06;;;2.22;100.00
59951;BME280;45812;53.540;9.774;2023-03-07T09:09:00;99085.19;;;2.27;100.00
59951;BME280;45812;53.540;9.774;2023-03-07T09:11:25;99115.78;;;2.36;100.00
59951;BME280;45812;53.540;9.774;2023-03-07T09:13:50;99116.38;;;2.48;100.00
59951;BME280;45812;53.540;9.774;2023-03-07T09:16:15;99108.50;;;2.48;100.00
59951;BME280;45812;53.540;9.774;2023-03-07T09:18:41;99109.44;;;2.64;100.00
59951;BME280;45812;53.540;9.774;2023-03-07T09:21:06;99097.34;;;2.71;100.00
59951;BME280;45812;53.540;9.774;2023-03-07T09:23:32;99112.47;;;2.78;100.00
59951;BME280;45812;53.540;9.774;2023-03-07T09:25:58;99114.00;;;2.80;100.00
59951;BME280;45812;53.540;9.774;2023-03-07T09:28:23;99112.91;;;2.91;100.00
59951;BME280;45812;53.540;9.774;2023-03-07T09:30:49;99117.44;;;3.07;100.00
59951;BME280;45812;53.540;9.774;2023-03-07T09:33:14;99136.16;;;3.03;100.00
59951;BME280;45812;53.540;9.774;2023-03-07T09:35:39;99114.47;;;3.10;100.00
59951;BME280;45812;53.540;9.774;2023-03-07T09:38:05;99128.03;;;3.23;100.00
59951;BME280;45812;53.540;9.774;2023-03-07T09:40:30;99128.03;;;3.23;100.00
59951;BME280;45812;53.540;9.774;2023-03-07T09:43:15;99115.19;;;3.20;100.00
59951;BME280;45812;53.540;9.774;2023-03-07T09:51:40;99126.38;;;2.70;100.00
59951;BME280;45812;53.540;9.774;2023-03-07T09:56:47;99133.59;;;2.68;100.00
59951;BME280;45812;53.540;9.774;2023-03-07T09:59:19;99122.31;;;2.76;100.00
59951;BME280;45812;53.540;9.774;2023-03-07T10:02:11;99120.50;;;2.76;100.00
59951;BME280;45812;53.540;9.774;2023-03-07T10:04:46;99130.09;;;3.11;100.00
59951;BME280;45812;53.540;9.774;2023-03-07T10:07:14;99123.19;;;3.10;99.91
59951;BME280;45812;53.540;9.774;2023-03-07T10:09:41;99133.50;;;2.78;95.94
59951;BME280;45812;53.540;9.774;2023-03-07T10:12:19;99128.22;;;2.52;97.85
59951;BME280;45812;53.540;9.774;2023-03-07T10:15:03;99134.59;;;2.49;98.58
59951;BME280;45812;53.540;9.774;2023-03-07T10:20:27;99139.41;;;2.18;97.16
59951;BME280;45812;53.540;9.774;2023-03-07T10:26:10;99155.56;;;2.23;100.00
59951;BME280;45812;53.540;9.774;2023-03-07T10:28:38;99148.34;;;2.43;100.00
59951;BME280;45812;53.540;9.774;2023-03-07T10:33:44;99141.03;;;2.98;100.00
59951;BME280;45812;53.540;9.774;2023-03-07T10:36:18;99145.06;;;3.45;100.00
59951;BME280;45812;53.540;9.774;2023-03-07T10:38:48;99148.22;;;3.99;100.00
59951;BME280;45812;53.540;9.774;2023-03-07T10:41:17;99169.53;;;4.54;100.00
59951;BME280;45812;53.540;9.774;2023-03-07T10:43:46;99153.38;;;4.90;97.48
59951;BME280;45812;53.540;9.774;2023-03-07T10:46:18;99141.84;;;4.91;94.72
59951;BME280;45812;53.540;9.774;2023-03-07T10:49:07;99151.06;;;4.54;93.67
59951;BME280;45812;53.540;9.774;2023-03-07T10:51:54;99156.00;;;4.57;94.04
59951;BME280;45812;53.540;9.774;2023-03-07T10:54:27;99162.44;;;4.38;92.70
59951;BME280;45812;53.540;9.774;2023-03-07T10:57:13;99178.25;;;3.80;98.51
59951;BME280;45812;53.540;9.774;2023-03-07T10:59:44;99189.06;;;3.09;100.00
59951;BME280;45812;53.540;9.774;2023-03-07T11:02:31;99175.50;;;2.52;100.00
59951;BME280;45812;53.540;9.774;2023-03-07T11:04:59;99183.91;;;2.37;100.00
59951;BME280;45812;53.540;9.774;2023-03-07T11:07:31;99179.25;;;2.67;100.00
59951;BME280;45812;53.540;9.774;2023-03-07T11:10:00;99187.81;;;2.95;100.00
59951;BME280;45812;53.540;9.774;2023-03-07T11:12:27;99182.16;;;3.68;100.00
59951;BME280;45812;53.540;9.774;2023-03-07T11:15:20;99182.81;;;4.12;99.84
59951;BME280;45812;53.540;9.774;2023-03-07T11:17:47;99196.13;;;4.10;97.88
59951;BME280;45812;53.540;9.774;2023-03-07T11:20:45;99173.38;;;3.93;98.64
59951;BME280;45812;53.540;9.774;2023-03-07T11:23:22;99183.75;;;3.94;98.15
59951;BME280;45812;53.540;9.774;2023-03-07T11:25:49;99191.91;;;3.75;99.18
59951;BME280;45812;53.540;9.774;2023-03-07T11:28:32;99174.25;;;4.18;98.22
59951;BME280;45812;53.540;9.774;2023-03-07T11:31:22;99162.78;;;4.84;93.36
59951;BME280;45812;53.540;9.774;2023-03-07T11:36:36;99177.59;;;5.57;85.42
59951;BME280;45812;53.540;9.774;2023-03-07T11:39:33;99170.22;;;6.68;79.67
59951;BME280;45812;53.540;9.774;2023-03-07T11:42:14;99188.91;;;6.66;74.78
59951;BME280;45812;53.540;9.774;2023-03-07T11:48:07;99185.69;;;5.63;74.79
59951;BME280;45812;53.540;9.774;2023-03-07T11:50:36;99185.97;;;4.80;79.63
59951;BME280;45812;53.540;9.774;2023-03-07T11:53:15;99207.75;;;4.66;80.84
59951;BME280;45812;53.540;9.774;2023-03-07T11:56:01;99199.03;;;5.62;65.35
59951;BME280;45812;53.540;9.774;2023-03-07T11:58:58;99202.59;;;7.89;50.03
59951;BME280;45812;53.540;9.774;2023-03-07T12:01:46;99194.47;;;8.85;46.38
59951;BME280;45812;53.540;9.774;2023-03-07T12:04:40;99191.16;;;9.04;45.37
59951;BME280;45812;53.540;9.774;2023-03-07T12:10:28;99197.47;;;6.68;45.63
59951;BME280;45812;53.540;9.774;2023-03-07T12:16:11;99187.75;;;6.46;46.90
59951;BME280;45812;53.540;9.774;2023-03-07T12:24:33;99203.81;;;9.64;40.73
59951;BME280;45812;53.540;9.774;2023-03-07T12:27:13;99204.06;;;11.25;38.57
59951;BME280;45812;53.540;9.774;2023-03-07T12:29:51;99210.59;;;10.96;37.18
59951;BME280;45812;53.540;9.774;2023-03-07T12:32:25;99210.94;;;8.80;39.50
59951;BME280;45812;53.540;9.774;2023-03-07T12:34:54;99214.00;;;7.31;44.03
59951;BME280;45812;53.540;9.774;2023-03-07T12:37:43;99203.38;;;8.56;41.93
59951;BME280;45812;53.540;9.774;2023-03-07T12:40:20;99184.16;;;11.40;37.89
59951;BME280;45812;53.540;9.774;2023-03-07T12:42:59;99214.03;;;12.71;34.21
59951;BME280;45812;53.540;9.774;2023-03-07T12:45:47;99214.38;;;14.00;33.51
59951;BME280;45812;53.540;9.774;2023-03-07T12:50:53;99221.41;;;11.93;34.47
59951;BME280;45812;53.540;9.774;2023-03-07T12:53:45;99215.69;;;9.34;37.74
59951;BME280;45812;53.540;9.774;2023-03-07T12:56:17;99216.94;;;7.66;41.50
59951;BME280;45812;53.540;9.774;2023-03-07T12:58:49;99227.38;;;10.76;37.40
59951;BME280;45812;53.540;9.774;2023-03-07T13:01:25;99220.59;;;11.66;34.39
59951;BME280;45812;53.540;9.774;2023-03-07T13:06:41;99225.91;;;15.32;29.77
59951;BME280;45812;53.540;9.774;2023-03-07T13:09:21;99225.00;;;15.61;27.84
59951;BME280;45812;53.540;9.774;2023-03-07T13:14:51;99251.28;;;12.08;33.66
59951;BME280;45812;53.540;9.774;2023-03-07T13:24:54;99253.09;;;14.52;30.17
59951;BME280;45812;53.540;9.774;2023-03-07T13:27:25;99247.97;;;13.52;32.05
59951;BME280;45812;53.540;9.774;2023-03-07T13:45:46;99245.81;;;13.11;30.83
59951;BME280;45812;53.540;9.774;2023-03-07T13:48:57;99247.88;;;10.82;33.36
59951;BME280;45812;53.540;9.774;2023-03-07T13:53:53;99269.34;;;8.44;38.69
59951;BME280;45812;53.540;9.774;2023-03-07T13:56:23;99260.59;;;7.84;39.21
59951;BME280;45812;53.540;9.774;2023-03-07T13:59:16;99282.31;;;7.95;40.23
59951;BME280;45812;53.540;9.774;2023-03-07T14:01:53;99261.06;;;7.88;40.75
59951;BME280;45812;53.540;9.774;2023-03-07T14:04:23;99247.91;;;7.65;41.98
59951;BME280;45812;53.540;9.774;2023-03-07T14:06:55;99265.59;;;7.50;43.38
59951;BME280;45812;53.540;9.774;2023-03-07T14:09:34;99264.59;;;7.51;43.45
59951;BME280;45812;53.540;9.774;2023-03-07T14:12:12;99263.00;;;7.27;43.77
59951;BME280;45812;53.540;9.774;2023-03-07T14:17:49;99278.50;;;6.92;45.36
59951;BME280;45812;53.540;9.774;2023-03-07T14:20:29;99280.50;;;6.90;46.03
59951;BME280;45812;53.540;9.774;2023-03-07T14:25:49;99291.47;;;6.48;45.99
59951;BME280;45812;53.540;9.774;2023-03-07T14:28:21;99286.06;;;6.02;46.89
59951;BME280;45812;53.540;9.774;2023-03-07T14:30:56;99303.63;;;5.55;47.15